createdAt,value
2022-12-09T00:00:15.868Z,28.30
2022-12-09T00:01:15.847Z,27.40
2022-12-09T00:02:15.875Z,26.60
2022-12-09T00:03:20.121Z,25.60
2022-12-09T00:04:16.093Z,25.90
2022-12-09T00:05:15.939Z,25.90
2022-12-09T00:06:15.605Z,26.30
2022-12-09T00:07:15.577Z,26.80
2022-12-09T00:08:15.572Z,25.60
2022-12-09T00:09:15.881Z,27.10
2022-12-09T00:10:15.491Z,26.20
2022-12-09T00:11:15.592Z,25.80
2022-12-09T00:12:15.489Z,25.90
2022-12-09T00:13:15.423Z,26.30
2022-12-09T00:14:15.377Z,26.00
2022-12-09T00:15:15.525Z,25.30
2022-12-09T00:16:15.608Z,26.30
2022-12-09T00:17:15.536Z,26.70
2022-12-09T00:18:15.546Z,26.50
2022-12-09T00:19:15.236Z,25.90
2022-12-09T00:20:15.218Z,26.50
2022-12-09T00:21:15.210Z,25.90
2022-12-09T00:22:15.295Z,26.40
2022-12-09T00:23:15.284Z,26.30
2022-12-09T00:24:15.327Z,25.30
2022-12-09T00:25:15.225Z,26.20
2022-12-09T00:26:15.041Z,26.70
2022-12-09T00:27:15.009Z,25.00
2022-12-09T00:28:14.977Z,26.50
2022-12-09T00:29:14.952Z,25.40
2022-12-09T00:30:14.999Z,25.80
2022-12-09T00:31:15.102Z,27.10
2022-12-09T00:32:14.957Z,25.40
2022-12-09T00:33:15.032Z,26.00
2022-12-09T00:34:14.808Z,25.40
2022-12-09T00:35:15.021Z,26.90
2022-12-09T00:36:15.064Z,25.80
2022-12-09T00:37:14.968Z,25.80
2022-12-09T00:38:14.841Z,26.20
2022-12-09T00:39:14.816Z,26.10
2022-12-09T00:40:14.639Z,23.90
2022-12-09T00:41:14.712Z,25.20
2022-12-09T00:42:14.584Z,25.60
2022-12-09T00:43:14.561Z,25.10
2022-12-09T00:44:14.725Z,23.80
2022-12-09T00:45:14.752Z,22.30
2022-12-09T00:46:14.594Z,24.40
2022-12-09T00:47:14.659Z,24.10
2022-12-09T00:48:14.418Z,25.20
2022-12-09T00:49:14.416Z,26.30
2022-12-09T00:50:14.540Z,25.10
2022-12-09T00:51:14.489Z,25.80
2022-12-09T00:52:14.541Z,25.00
2022-12-09T00:53:14.299Z,26.20
2022-12-09T00:54:14.457Z,25.60
2022-12-09T00:55:14.505Z,26.60
2022-12-09T00:56:14.193Z,25.30
2022-12-09T00:57:14.159Z,26.00
2022-12-09T00:58:14.435Z,24.80
2022-12-09T00:59:14.312Z,25.00
2022-12-09T01:00:14.221Z,26.20
2022-12-09T01:01:14.228Z,25.70
2022-12-09T01:02:14.256Z,25.30
2022-12-09T01:03:14.464Z,25.40
2022-12-09T01:04:14.155Z,26.00
2022-12-09T01:05:14.309Z,25.50
2022-12-09T01:06:13.906Z,26.40
2022-12-09T01:07:13.899Z,25.50
2022-12-09T01:08:13.904Z,24.40
2022-12-09T01:09:14.148Z,24.60
2022-12-09T01:10:14.042Z,24.90
2022-12-09T01:11:13.895Z,25.60
2022-12-09T01:12:13.742Z,25.20
2022-12-09T01:13:13.942Z,25.90
2022-12-09T01:14:13.786Z,28.50
2022-12-09T01:15:13.692Z,26.60
2022-12-09T01:16:13.911Z,27.20
2022-12-09T01:17:13.690Z,25.20
2022-12-09T01:18:13.612Z,26.70
2022-12-09T01:19:13.694Z,26.90
2022-12-09T01:20:13.751Z,26.00
2022-12-09T01:21:13.563Z,27.10
2022-12-09T01:22:13.454Z,25.80
2022-12-09T01:23:13.776Z,25.80
2022-12-09T01:24:13.647Z,26.20
2022-12-09T01:25:13.501Z,27.60
2022-12-09T01:26:13.464Z,27.50
2022-12-09T01:27:13.310Z,27.40
2022-12-09T01:28:13.278Z,25.70
2022-12-09T01:29:13.269Z,27.10
2022-12-09T01:30:13.448Z,26.00
2022-12-09T01:31:13.356Z,26.10
2022-12-09T01:32:13.634Z,25.50
2022-12-09T01:33:13.310Z,27.40
2022-12-09T01:34:13.405Z,26.70
2022-12-09T01:35:13.382Z,26.80
2022-12-09T01:36:13.056Z,25.60
2022-12-09T01:37:13.035Z,25.20
2022-12-09T01:38:13.052Z,26.30
2022-12-09T01:39:13.236Z,28.30
2022-12-09T01:40:13.250Z,25.90
2022-12-09T01:41:12.954Z,26.70
2022-12-09T01:42:13.217Z,25.20
2022-12-09T01:43:12.893Z,26.20
2022-12-09T01:44:13.130Z,25.70
2022-12-09T01:45:13.026Z,25.80
2022-12-09T01:46:13.040Z,25.60
2022-12-09T01:47:12.934Z,27.40
2022-12-09T01:48:12.937Z,25.60
2022-12-09T01:49:12.695Z,24.40
2022-12-09T01:50:12.665Z,24.80
2022-12-09T01:51:12.630Z,25.70
2022-12-09T01:52:12.642Z,26.90
2022-12-09T01:53:12.571Z,26.00
2022-12-09T01:54:12.620Z,26.70
2022-12-09T01:55:12.895Z,27.40
2022-12-09T01:56:12.714Z,27.80
2022-12-09T01:57:12.615Z,28.00
2022-12-09T01:58:12.594Z,27.20
2022-12-09T01:59:12.401Z,25.90
2022-12-09T02:00:12.904Z,27.60
2022-12-09T02:01:12.714Z,27.00
2022-12-09T02:02:12.401Z,26.90
2022-12-09T02:03:12.724Z,26.20
2022-12-09T02:04:12.790Z,26.00
2022-12-09T02:05:12.336Z,26.90
2022-12-09T02:06:12.210Z,27.60
2022-12-09T02:07:12.311Z,26.50
2022-12-09T02:08:12.162Z,28.00
2022-12-09T02:09:12.254Z,26.60
2022-12-09T02:10:12.443Z,27.30
2022-12-09T02:11:12.067Z,27.10
2022-12-09T02:12:12.109Z,27.20
2022-12-09T02:13:12.323Z,27.00
2022-12-09T02:14:11.997Z,26.50
2022-12-09T02:15:11.949Z,27.60
2022-12-09T02:16:12.085Z,28.10
2022-12-09T02:17:11.948Z,29.30
2022-12-09T02:18:12.039Z,28.50
2022-12-09T02:19:12.075Z,28.00
2022-12-09T02:20:12.436Z,27.10
2022-12-09T02:21:11.908Z,26.20
2022-12-09T02:22:12.089Z,27.00
2022-12-09T02:23:11.729Z,28.20
2022-12-09T02:24:11.703Z,28.80
2022-12-09T02:25:12.007Z,27.80
2022-12-09T02:26:11.961Z,26.20
2022-12-09T02:27:11.608Z,26.80
2022-12-09T02:28:11.760Z,28.20
2022-12-09T02:29:11.943Z,27.90
2022-12-09T02:30:12.305Z,26.50
2022-12-09T02:31:11.925Z,27.30
2022-12-09T02:32:11.584Z,27.90
2022-12-09T02:33:11.531Z,27.10
2022-12-09T02:34:11.656Z,26.60
2022-12-09T02:35:11.400Z,26.90
2022-12-09T02:36:11.564Z,25.60
2022-12-09T02:37:11.402Z,25.90
2022-12-09T02:38:11.308Z,24.70
2022-12-09T02:39:11.274Z,24.90
2022-12-09T02:40:11.747Z,25.00
2022-12-09T02:41:11.254Z,24.70
2022-12-09T02:42:11.190Z,26.50
2022-12-09T02:43:11.155Z,25.30
2022-12-09T02:44:11.199Z,24.80
2022-12-09T02:45:11.164Z,24.90
2022-12-09T02:46:11.093Z,24.70
2022-12-09T02:47:11.137Z,24.70
2022-12-09T02:48:11.230Z,25.20
2022-12-09T02:49:10.993Z,24.00
2022-12-09T02:50:11.324Z,24.80
2022-12-09T02:51:10.936Z,22.80
2022-12-09T02:52:10.908Z,24.90
2022-12-09T02:53:11.059Z,23.40
2022-12-09T02:54:10.863Z,23.20
2022-12-09T02:55:10.821Z,23.00
2022-12-09T02:56:11.016Z,23.50
2022-12-09T02:57:11.052Z,23.50
2022-12-09T02:58:10.738Z,23.20
2022-12-09T02:59:10.752Z,24.50
2022-12-09T03:00:11.378Z,24.30
2022-12-09T03:01:10.878Z,24.30
2022-12-09T03:02:11.089Z,23.90
2022-12-09T03:03:10.925Z,24.10
2022-12-09T03:04:10.731Z,25.10
2022-12-09T03:05:10.538Z,24.20
2022-12-09T03:06:10.926Z,24.90
2022-12-09T03:07:10.485Z,25.00
2022-12-09T03:08:10.613Z,24.70
2022-12-09T03:09:10.587Z,23.70
2022-12-09T03:10:11.205Z,25.90
2022-12-09T03:11:10.641Z,24.60
2022-12-09T03:12:10.345Z,26.10
2022-12-09T03:13:10.313Z,25.30
2022-12-09T03:14:10.493Z,25.00
2022-12-09T03:15:10.425Z,26.40
2022-12-09T03:16:10.687Z,25.10
2022-12-09T03:17:10.272Z,25.30
2022-12-09T03:18:10.303Z,25.70
2022-12-09T03:19:10.185Z,25.50
2022-12-09T03:20:10.433Z,26.30
2022-12-09T03:21:10.351Z,25.90
2022-12-09T03:22:10.444Z,25.20
2022-12-09T03:23:10.028Z,25.00
2022-12-09T03:24:10.291Z,25.50
2022-12-09T03:25:10.353Z,24.70
2022-12-09T03:26:10.218Z,25.60
2022-12-09T03:27:09.915Z,24.10
2022-12-09T03:28:09.935Z,26.10
2022-12-09T03:29:09.860Z,26.20
2022-12-09T03:30:10.284Z,26.20
2022-12-09T03:31:09.801Z,27.80
2022-12-09T03:32:10.208Z,26.10
2022-12-09T03:33:10.272Z,28.40
2022-12-09T03:34:09.768Z,27.60
2022-12-09T03:35:10.041Z,27.80
2022-12-09T03:36:09.706Z,28.00
2022-12-09T03:37:09.639Z,28.50
2022-12-09T03:38:09.659Z,27.20
2022-12-09T03:39:09.706Z,27.90
2022-12-09T03:40:13.944Z,29.80
2022-12-09T03:41:09.754Z,28.20
2022-12-09T03:42:09.636Z,29.60
2022-12-09T03:43:09.750Z,29.00
2022-12-09T03:44:09.736Z,29.20
2022-12-09T03:45:09.410Z,30.30
2022-12-09T03:46:09.628Z,29.20
2022-12-09T03:47:09.821Z,29.50
2022-12-09T03:48:09.705Z,30.00
2022-12-09T03:49:09.390Z,29.90
2022-12-09T03:50:09.560Z,30.80
2022-12-09T03:51:09.331Z,28.40
2022-12-09T03:52:09.328Z,30.00
2022-12-09T03:53:09.523Z,31.00
2022-12-09T03:54:09.368Z,29.80
2022-12-09T03:55:09.403Z,29.70
2022-12-09T03:56:09.157Z,30.60
2022-12-09T03:57:12.459Z,29.30
2022-12-09T03:58:09.048Z,28.70
2022-12-09T03:59:09.422Z,28.60
2022-12-09T04:00:09.750Z,28.60
2022-12-09T04:01:09.077Z,31.50
2022-12-09T04:02:09.413Z,29.10
2022-12-09T04:03:09.212Z,29.90
2022-12-09T04:04:09.098Z,30.40
2022-12-09T04:05:09.364Z,30.60
2022-12-09T04:06:08.930Z,30.20
2022-12-09T04:07:08.801Z,29.20
2022-12-09T04:08:08.866Z,29.40
2022-12-09T04:09:09.189Z,29.50
2022-12-09T04:10:09.378Z,29.80
2022-12-09T04:11:09.040Z,29.80
2022-12-09T04:12:08.935Z,30.30
2022-12-09T04:13:08.661Z,29.60
2022-12-09T04:14:15.109Z,29.90
2022-12-09T04:15:08.861Z,31.10
2022-12-09T04:16:08.539Z,31.40
2022-12-09T04:17:08.661Z,30.90
2022-12-09T04:18:08.884Z,31.20
2022-12-09T04:19:08.512Z,30.10
2022-12-09T04:20:09.270Z,30.20
2022-12-09T04:21:08.532Z,29.90
2022-12-09T04:22:08.455Z,30.30
2022-12-09T04:23:08.713Z,29.90
2022-12-09T04:24:08.327Z,30.20
2022-12-09T04:25:08.356Z,29.20
2022-12-09T04:26:08.262Z,30.40
2022-12-09T04:27:08.544Z,31.00
2022-12-09T04:28:08.200Z,31.50
2022-12-09T04:29:08.296Z,32.60
2022-12-09T04:30:08.858Z,32.60
2022-12-09T04:31:08.222Z,32.50
2022-12-09T04:32:08.554Z,30.10
2022-12-09T04:33:08.057Z,29.60
2022-12-09T04:34:09.826Z,30.00
2022-12-09T04:35:08.250Z,29.30
2022-12-09T04:36:07.981Z,30.50
2022-12-09T04:37:08.140Z,29.90
2022-12-09T04:38:07.921Z,28.10
2022-12-09T04:39:08.251Z,29.60
2022-12-09T04:40:08.316Z,30.80
2022-12-09T04:41:07.922Z,29.60
2022-12-09T04:42:08.105Z,29.20
2022-12-09T04:43:07.791Z,29.60
2022-12-09T04:44:07.858Z,30.30
2022-12-09T04:45:07.791Z,30.20
2022-12-09T04:46:08.124Z,28.80
2022-12-09T04:47:07.975Z,30.60
2022-12-09T04:48:07.744Z,30.30
2022-12-09T04:49:07.606Z,30.90
2022-12-09T04:50:08.004Z,29.70
2022-12-09T04:51:07.688Z,30.00
2022-12-09T04:52:07.530Z,29.80
2022-12-09T04:53:07.828Z,29.80
2022-12-09T04:54:07.468Z,29.90
2022-12-09T04:55:07.699Z,30.60
2022-12-09T04:56:07.411Z,29.10
2022-12-09T04:57:07.380Z,29.60
2022-12-09T04:58:07.363Z,29.50
2022-12-09T04:59:07.467Z,29.50
2022-12-09T05:00:07.694Z,29.00
2022-12-09T05:01:07.609Z,29.40
2022-12-09T05:02:07.333Z,29.30
2022-12-09T05:03:07.333Z,28.70
2022-12-09T05:04:07.388Z,30.20
2022-12-09T05:05:07.646Z,28.70
2022-12-09T05:06:07.272Z,29.40
2022-12-09T05:07:07.266Z,28.50
2022-12-09T05:08:07.349Z,30.90
2022-12-09T05:09:07.251Z,30.30
2022-12-09T05:10:07.983Z,29.10
2022-12-09T05:11:07.090Z,29.10
2022-12-09T05:12:07.039Z,28.00
2022-12-09T05:13:07.209Z,29.10
2022-12-09T05:14:07.187Z,28.10
2022-12-09T05:15:07.121Z,28.60
2022-12-09T05:16:12.139Z,29.70
2022-12-09T05:17:07.289Z,28.80
2022-12-09T05:18:06.943Z,29.40
2022-12-09T05:19:07.116Z,30.60
2022-12-09T05:20:07.375Z,29.80
2022-12-09T05:21:06.952Z,28.90
2022-12-09T05:22:06.990Z,28.70
2022-12-09T05:23:09.575Z,29.70
2022-12-09T05:24:06.958Z,27.90
2022-12-09T05:25:06.804Z,29.00
2022-12-09T05:26:07.024Z,30.20
2022-12-09T05:27:06.560Z,30.20
2022-12-09T05:28:06.843Z,30.40
2022-12-09T05:29:06.529Z,30.40
2022-12-09T05:30:07.541Z,30.20
2022-12-09T05:31:06.599Z,31.00
2022-12-09T05:32:06.546Z,30.60
2022-12-09T05:33:06.739Z,31.10
2022-12-09T05:34:06.564Z,33.60
2022-12-09T05:35:06.405Z,34.10
2022-12-09T05:36:06.695Z,34.60
2022-12-09T05:37:06.581Z,31.20
2022-12-09T05:38:06.227Z,30.00
2022-12-09T05:39:06.276Z,31.80
2022-12-09T05:40:07.067Z,32.00
2022-12-09T05:41:06.609Z,31.40
2022-12-09T05:42:06.551Z,31.90
2022-12-09T05:43:06.236Z,33.00
2022-12-09T05:44:06.463Z,32.70
2022-12-09T05:45:06.027Z,31.50
2022-12-09T05:46:06.573Z,30.90
2022-12-09T05:47:06.088Z,31.60
2022-12-09T05:48:06.107Z,31.00
2022-12-09T05:49:06.479Z,31.50
2022-12-09T05:50:08.217Z,32.20
2022-12-09T05:51:05.966Z,31.00
2022-12-09T05:52:06.272Z,31.10
2022-12-09T05:53:05.849Z,31.90
2022-12-09T05:54:06.340Z,31.80
2022-12-09T05:55:06.046Z,31.50
2022-12-09T05:56:05.979Z,30.30
2022-12-09T05:57:05.910Z,30.10
2022-12-09T05:58:05.814Z,30.40
2022-12-09T05:59:05.653Z,31.40
2022-12-09T06:00:06.801Z,32.00
2022-12-09T06:01:05.736Z,30.80
2022-12-09T06:02:10.048Z,33.20
2022-12-09T06:03:06.077Z,32.90
2022-12-09T06:04:05.892Z,34.20
2022-12-09T06:05:05.935Z,33.90
2022-12-09T06:06:05.789Z,34.10
2022-12-09T06:07:06.038Z,33.30
2022-12-09T06:08:07.463Z,33.70
2022-12-09T06:09:05.850Z,33.30
2022-12-09T06:10:05.842Z,32.70
2022-12-09T06:11:05.799Z,33.90
2022-12-09T06:12:05.428Z,33.30
2022-12-09T06:13:05.484Z,34.40
2022-12-09T06:14:05.454Z,33.20
2022-12-09T06:15:09.112Z,33.90
2022-12-09T06:16:05.403Z,34.60
2022-12-09T06:17:05.450Z,33.30
2022-12-09T06:18:05.643Z,33.40
2022-12-09T06:19:05.282Z,34.70
2022-12-09T06:20:05.681Z,33.70
2022-12-09T06:21:05.465Z,34.70
2022-12-09T06:22:05.441Z,33.20
2022-12-09T06:23:04.977Z,32.80
2022-12-09T06:24:05.028Z,32.20
2022-12-09T06:25:04.914Z,33.20
2022-12-09T06:26:05.046Z,35.10
2022-12-09T06:27:05.237Z,33.60
2022-12-09T06:28:04.887Z,33.70
2022-12-09T06:29:04.875Z,33.60
2022-12-09T06:30:05.239Z,33.40
2022-12-09T06:31:05.107Z,32.60
2022-12-09T06:32:04.853Z,32.60
2022-12-09T06:33:12.981Z,33.40
2022-12-09T06:34:04.842Z,33.20
2022-12-09T06:35:04.990Z,32.80
2022-12-09T06:36:04.729Z,33.40
2022-12-09T06:37:04.674Z,33.30
2022-12-09T06:38:04.688Z,32.00
2022-12-09T06:39:09.978Z,33.40
2022-12-09T06:40:04.622Z,32.60
2022-12-09T06:41:04.681Z,34.70
2022-12-09T06:42:04.506Z,33.40
2022-12-09T06:43:04.462Z,32.40
2022-12-09T06:44:04.779Z,33.30
2022-12-09T06:45:04.903Z,32.30
2022-12-09T06:46:04.338Z,32.40
2022-12-09T06:47:04.723Z,32.40
2022-12-09T06:48:04.391Z,33.90
2022-12-09T06:49:04.763Z,33.50
2022-12-09T06:50:06.896Z,32.40
2022-12-09T06:51:04.522Z,33.30
2022-12-09T06:52:04.505Z,32.90
2022-12-09T06:53:04.378Z,32.70
2022-12-09T06:54:04.535Z,32.70
2022-12-09T06:55:04.175Z,34.40
2022-12-09T06:56:11.054Z,33.20
2022-12-09T06:57:04.434Z,31.70
2022-12-09T06:58:04.332Z,33.50
2022-12-09T06:59:04.031Z,31.70
2022-12-09T07:00:04.259Z,34.30
2022-12-09T07:01:04.503Z,33.10
2022-12-09T07:02:04.110Z,34.90
2022-12-09T07:03:04.215Z,32.10
2022-12-09T07:04:04.314Z,31.70
2022-12-09T07:05:04.171Z,34.00
2022-12-09T07:06:04.144Z,31.50
2022-12-09T07:07:04.150Z,32.90
2022-12-09T07:08:03.955Z,32.00
2022-12-09T07:09:03.988Z,33.50
2022-12-09T07:10:04.101Z,34.40
2022-12-09T07:11:03.809Z,32.70
2022-12-09T07:12:03.697Z,32.20
2022-12-09T07:13:03.718Z,32.70
2022-12-09T07:14:03.718Z,33.20
2022-12-09T07:15:04.065Z,33.10
2022-12-09T07:16:03.831Z,33.50
2022-12-09T07:17:03.851Z,32.70
2022-12-09T07:18:03.688Z,32.70
2022-12-09T07:19:03.635Z,32.80
2022-12-09T07:20:06.985Z,33.00
2022-12-09T07:21:03.372Z,32.40
2022-12-09T07:22:03.668Z,32.00
2022-12-09T07:23:03.475Z,32.60
2022-12-09T07:24:03.828Z,31.30
2022-12-09T07:25:03.624Z,31.60
2022-12-09T07:26:03.584Z,33.20
2022-12-09T07:27:08.071Z,34.00
2022-12-09T07:28:03.185Z,32.20
2022-12-09T07:29:03.270Z,32.80
2022-12-09T07:30:03.387Z,33.70
2022-12-09T07:31:03.219Z,33.30
2022-12-09T07:32:03.215Z,32.90
2022-12-09T07:33:03.145Z,33.20
2022-12-09T07:34:03.286Z,33.80
2022-12-09T07:35:03.207Z,34.20
2022-12-09T07:36:03.111Z,35.60
2022-12-09T07:37:03.240Z,34.70
2022-12-09T07:38:03.049Z,33.60
2022-12-09T07:39:03.250Z,34.40
2022-12-09T07:40:03.240Z,34.40
2022-12-09T07:41:02.945Z,34.30
2022-12-09T07:42:03.103Z,34.20
2022-12-09T07:43:03.109Z,31.80
2022-12-09T07:44:02.795Z,33.40
2022-12-09T07:45:02.995Z,31.90
2022-12-09T07:46:02.797Z,31.60
2022-12-09T07:47:02.731Z,31.70
2022-12-09T07:48:03.163Z,33.20
2022-12-09T07:49:02.738Z,32.00
2022-12-09T07:50:06.564Z,33.50
2022-12-09T07:51:02.785Z,33.40
2022-12-09T07:52:02.645Z,33.20
2022-12-09T07:53:02.607Z,33.30
2022-12-09T07:54:02.665Z,32.90
2022-12-09T07:55:02.508Z,34.50
2022-12-09T07:56:02.458Z,32.80
2022-12-09T07:57:02.370Z,33.50
2022-12-09T07:58:02.397Z,32.20
2022-12-09T07:59:02.284Z,33.80
2022-12-09T08:00:02.781Z,33.90
2022-12-09T08:01:02.341Z,33.50
2022-12-09T08:02:05.948Z,33.20
2022-12-09T08:03:02.568Z,33.70
2022-12-09T08:04:02.483Z,34.40
2022-12-09T08:05:02.470Z,33.20
2022-12-09T08:06:02.568Z,35.00
2022-12-09T08:07:02.612Z,33.50
2022-12-09T08:08:02.311Z,33.00
2022-12-09T08:09:02.263Z,34.70
2022-12-09T08:10:02.209Z,33.70
2022-12-09T08:11:02.330Z,35.40
2022-12-09T08:12:02.101Z,33.90
2022-12-09T08:13:01.906Z,34.80
2022-12-09T08:14:07.168Z,33.40
2022-12-09T08:15:02.311Z,33.30
2022-12-09T08:16:01.941Z,32.90
2022-12-09T08:17:01.913Z,32.40
2022-12-09T08:18:01.806Z,33.00
2022-12-09T08:19:01.800Z,31.80
2022-12-09T08:20:02.220Z,31.40
2022-12-09T08:21:02.098Z,31.40
2022-12-09T08:22:01.775Z,33.30
2022-12-09T08:23:01.671Z,32.40
2022-12-09T08:24:01.896Z,32.40
2022-12-09T08:25:01.987Z,32.90
2022-12-09T08:26:01.811Z,31.60
2022-12-09T08:27:01.946Z,31.90
2022-12-09T08:28:01.939Z,32.40
2022-12-09T08:29:01.956Z,32.10
2022-12-09T08:30:01.778Z,32.10
2022-12-09T08:31:01.967Z,31.50
2022-12-09T08:32:01.537Z,34.20
2022-12-09T08:33:01.751Z,32.50
2022-12-09T08:34:01.607Z,32.30
2022-12-09T08:35:01.938Z,32.80
2022-12-09T08:36:01.424Z,31.20
2022-12-09T08:37:02.380Z,32.70
2022-12-09T08:38:01.618Z,32.10
2022-12-09T08:39:01.356Z,33.40
2022-12-09T08:40:01.500Z,30.50
2022-12-09T08:41:01.324Z,32.00
2022-12-09T08:42:01.065Z,32.60
2022-12-09T08:43:01.236Z,32.40
2022-12-09T08:44:01.167Z,32.50
2022-12-09T08:45:03.001Z,33.40
2022-12-09T08:46:01.189Z,32.60
2022-12-09T08:47:01.136Z,35.10
2022-12-09T08:48:01.302Z,36.00
2022-12-09T08:49:01.057Z,37.20
2022-12-09T08:50:01.077Z,35.80
2022-12-09T08:51:01.249Z,35.30
2022-12-09T08:52:01.181Z,34.80
2022-12-09T08:53:01.082Z,36.50
2022-12-09T08:54:01.281Z,36.20
2022-12-09T08:55:00.820Z,34.70
2022-12-09T08:56:00.712Z,34.70
2022-12-09T08:57:01.093Z,33.60
2022-12-09T08:58:00.828Z,32.70
2022-12-09T08:59:00.760Z,34.60
2022-12-09T09:00:00.721Z,35.50
2022-12-09T09:01:00.872Z,36.00
2022-12-09T09:02:01.007Z,35.50
2022-12-09T09:03:00.953Z,35.90
2022-12-09T09:04:00.792Z,35.10
2022-12-09T09:05:00.767Z,35.40
2022-12-09T09:06:07.061Z,34.60
2022-12-09T09:07:00.631Z,34.60
2022-12-09T09:08:00.391Z,34.40
2022-12-09T09:09:00.561Z,35.10
2022-12-09T09:10:00.478Z,34.10
2022-12-09T09:11:00.855Z,32.90
2022-12-09T09:12:00.580Z,34.40
2022-12-09T09:13:00.323Z,35.70
2022-12-09T09:14:00.545Z,33.40
2022-12-09T09:15:00.567Z,33.60
2022-12-09T09:16:00.312Z,34.10
2022-12-09T09:17:00.179Z,35.60
2022-12-09T09:18:00.538Z,36.40
2022-12-09T09:19:00.283Z,34.30
2022-12-09T09:20:00.190Z,33.60
2022-12-09T09:21:00.510Z,33.70
2022-12-09T09:22:00.017Z,34.20
2022-12-09T09:23:03.325Z,33.80
2022-12-09T09:24:00.495Z,33.40
2022-12-09T09:25:00.230Z,33.00
2022-12-09T09:25:59.932Z,33.70
2022-12-09T09:26:59.782Z,34.80
2022-12-09T09:27:59.779Z,35.50
2022-12-09T09:28:59.856Z,33.50
2022-12-09T09:30:00.052Z,33.70
2022-12-09T09:30:59.841Z,33.30
2022-12-09T09:32:00.230Z,33.60
2022-12-09T09:33:00.078Z,32.90
2022-12-09T09:34:00.005Z,31.90
2022-12-09T09:34:59.763Z,33.70
2022-12-09T09:36:02.733Z,34.00
2022-12-09T09:36:59.923Z,32.40
2022-12-09T09:37:59.484Z,32.30
2022-12-09T09:38:59.574Z,33.60
2022-12-09T09:39:59.692Z,31.60
2022-12-09T09:40:59.480Z,32.80
2022-12-09T09:42:04.631Z,33.00
2022-12-09T09:42:59.392Z,33.40
2022-12-09T09:43:59.880Z,32.50
2022-12-09T09:44:59.583Z,33.50
2022-12-09T09:45:59.487Z,33.30
2022-12-09T09:46:59.517Z,32.90
2022-12-09T09:47:59.326Z,32.00
2022-12-09T09:48:59.454Z,31.90
2022-12-09T09:49:59.618Z,32.50
2022-12-09T09:50:59.173Z,33.60
2022-12-09T09:51:59.225Z,32.80
2022-12-09T09:52:59.157Z,32.70
2022-12-09T09:54:05.099Z,31.40
2022-12-09T09:54:59.366Z,33.10
2022-12-09T09:55:59.152Z,32.90
2022-12-09T09:56:59.387Z,32.90
2022-12-09T09:57:59.009Z,32.40
2022-12-09T09:58:58.953Z,31.60
2022-12-09T10:00:05.029Z,32.40
2022-12-09T10:00:59.140Z,33.20
2022-12-09T10:01:59.288Z,32.40
2022-12-09T10:02:59.528Z,31.50
2022-12-09T10:03:59.185Z,31.90
2022-12-09T10:04:59.182Z,33.80
2022-12-09T10:05:59.401Z,31.60
2022-12-09T10:07:04.126Z,32.80
2022-12-09T10:07:59.312Z,32.90
2022-12-09T10:08:59.406Z,33.40
2022-12-09T10:09:58.909Z,33.50
2022-12-09T10:10:58.785Z,34.40
2022-12-09T10:11:58.798Z,32.60
2022-12-09T10:13:05.841Z,31.50
2022-12-09T10:13:58.712Z,32.20
2022-12-09T10:14:59.029Z,32.60
2022-12-09T10:15:58.653Z,32.90
2022-12-09T10:16:58.616Z,32.60
2022-12-09T10:17:58.753Z,32.60
2022-12-09T10:19:02.664Z,33.00
2022-12-09T10:19:58.514Z,31.80
2022-12-09T10:20:58.347Z,32.90
2022-12-09T10:21:58.355Z,33.70
2022-12-09T10:22:58.369Z,32.60
2022-12-09T10:23:58.714Z,34.40
2022-12-09T10:24:58.904Z,34.60
2022-12-09T10:25:58.499Z,35.50
2022-12-09T10:26:58.554Z,35.90
2022-12-09T10:27:58.250Z,35.20
2022-12-09T10:28:58.669Z,34.80
2022-12-09T10:29:58.403Z,33.20
2022-12-09T10:30:58.278Z,34.10
2022-12-09T10:31:58.543Z,33.20
2022-12-09T10:32:58.128Z,35.50
2022-12-09T10:33:58.115Z,32.70
2022-12-09T10:34:58.176Z,32.80
2022-12-09T10:35:58.417Z,34.40
2022-12-09T10:36:57.885Z,33.40
2022-12-09T10:37:57.826Z,34.00
2022-12-09T10:38:58.216Z,33.20
2022-12-09T10:39:58.127Z,33.70
2022-12-09T10:40:57.853Z,34.00
2022-12-09T10:41:57.778Z,34.60
2022-12-09T10:42:58.106Z,35.30
2022-12-09T10:43:58.004Z,34.00
2022-12-09T10:44:57.999Z,34.50
2022-12-09T10:46:58.095Z,36.30
2022-12-09T10:47:57.691Z,35.20
2022-12-09T10:48:58.088Z,36.50
2022-12-09T10:49:57.729Z,36.30
2022-12-09T10:50:57.749Z,37.30
2022-12-09T10:51:57.589Z,37.30
2022-12-09T10:52:57.368Z,37.20
2022-12-09T10:53:57.685Z,36.70
2022-12-09T10:54:57.365Z,36.40
2022-12-09T10:55:57.423Z,36.30
2022-12-09T10:56:57.558Z,36.10
2022-12-09T10:57:57.679Z,37.80
2022-12-09T10:58:57.240Z,36.70
2022-12-09T10:59:58.506Z,36.50
2022-12-09T11:00:57.699Z,37.40
2022-12-09T11:01:57.635Z,37.70
2022-12-09T11:02:57.591Z,36.20
2022-12-09T11:03:57.299Z,37.90
2022-12-09T11:04:57.246Z,38.20
2022-12-09T11:05:57.305Z,35.50
2022-12-09T11:06:59.846Z,37.60
2022-12-09T11:07:57.206Z,35.70
2022-12-09T11:08:57.719Z,36.80
2022-12-09T11:09:57.633Z,37.60
2022-12-09T11:10:57.044Z,39.30
2022-12-09T11:11:56.988Z,39.50
2022-12-09T11:12:57.286Z,39.20
2022-12-09T11:13:57.069Z,38.10
2022-12-09T11:14:56.946Z,38.90
2022-12-09T11:15:56.843Z,39.20
2022-12-09T11:16:57.263Z,41.70
2022-12-09T11:17:56.982Z,45.30
2022-12-09T11:18:56.977Z,42.00
2022-12-09T11:19:56.830Z,40.00
2022-12-09T11:20:57.069Z,41.30
2022-12-09T11:21:56.930Z,42.30
2022-12-09T11:22:56.990Z,42.90
2022-12-09T11:24:02.873Z,40.60
2022-12-09T11:24:56.754Z,41.90
2022-12-09T11:25:56.548Z,42.20
2022-12-09T11:26:58.016Z,42.90
2022-12-09T11:27:56.461Z,40.20
2022-12-09T11:28:56.395Z,42.40
2022-12-09T11:29:56.466Z,41.40
2022-12-09T11:31:56.446Z,42.00
2022-12-09T11:32:56.690Z,43.00
2022-12-09T11:33:56.841Z,42.70
2022-12-09T11:34:56.758Z,41.80
2022-12-09T11:35:56.611Z,42.60
2022-12-09T11:36:56.137Z,40.90
2022-12-09T11:37:56.113Z,44.10
2022-12-09T11:38:56.080Z,41.60
2022-12-09T11:39:56.062Z,41.90
2022-12-09T11:40:56.023Z,42.80
2022-12-09T11:41:56.002Z,41.70
2022-12-09T11:42:55.967Z,40.70
2022-12-09T11:43:55.945Z,42.90
2022-12-09T11:44:55.913Z,42.80
2022-12-09T11:45:55.891Z,43.00
2022-12-09T11:46:55.938Z,41.70
2022-12-09T11:48:25.819Z,41.90
2022-12-09T11:48:55.828Z,41.30
2022-12-09T11:49:55.812Z,42.30
2022-12-09T11:50:55.747Z,42.30
2022-12-09T11:51:55.721Z,44.70
2022-12-09T11:52:55.688Z,40.00
2022-12-09T11:53:57.655Z,38.90
2022-12-09T11:54:55.637Z,39.70
2022-12-09T11:55:55.617Z,41.60
2022-12-09T11:56:55.584Z,42.30
2022-12-09T11:57:55.552Z,40.80
2022-12-09T11:58:55.529Z,43.00
2022-12-09T11:59:55.502Z,43.30
2022-12-09T12:00:55.471Z,44.20
2022-12-09T12:01:55.518Z,43.00
2022-12-09T12:02:55.585Z,44.80
2022-12-09T12:03:55.386Z,42.60
2022-12-09T12:04:55.376Z,41.20
2022-12-09T12:05:55.373Z,43.50
2022-12-09T12:06:55.299Z,40.80
2022-12-09T12:07:55.415Z,41.10
2022-12-09T12:08:55.377Z,40.30
2022-12-09T12:09:55.224Z,41.40
2022-12-09T12:10:55.191Z,41.60
2022-12-09T12:11:55.179Z,41.10
2022-12-09T12:12:55.144Z,39.60
2022-12-09T12:13:55.109Z,40.00
2022-12-09T12:14:55.081Z,39.00
2022-12-09T12:15:55.056Z,40.60
2022-12-09T12:16:55.076Z,39.00
2022-12-09T12:17:55.002Z,40.40
2022-12-09T12:18:54.968Z,40.10
2022-12-09T12:19:54.945Z,40.00
2022-12-09T12:20:54.933Z,40.80
2022-12-09T12:21:54.890Z,39.90
2022-12-09T12:22:55.232Z,38.90
2022-12-09T12:23:54.834Z,40.00
2022-12-09T12:24:54.801Z,39.60
2022-12-09T12:25:54.777Z,38.70
2022-12-09T12:26:54.746Z,38.70
2022-12-09T12:27:54.723Z,42.60
2022-12-09T12:28:58.997Z,38.60
2022-12-09T12:29:54.671Z,39.00
2022-12-09T12:30:54.639Z,39.00
2022-12-09T12:31:54.700Z,40.00
2022-12-09T12:33:40.827Z,38.90
2022-12-09T12:34:24.483Z,37.20
2022-12-09T12:34:54.526Z,39.20
2022-12-09T12:35:54.502Z,39.10
2022-12-09T12:36:54.491Z,38.90
2022-12-09T12:37:54.440Z,39.00
2022-12-09T12:38:54.415Z,40.10
2022-12-09T12:39:54.389Z,40.50
2022-12-09T12:40:54.358Z,38.30
2022-12-09T12:41:54.333Z,40.00
2022-12-09T12:42:54.302Z,39.30
2022-12-09T12:43:54.278Z,38.40
2022-12-09T12:44:54.246Z,37.70
2022-12-09T12:45:55.063Z,40.10
2022-12-09T12:46:54.192Z,37.10
2022-12-09T12:47:54.234Z,37.60
2022-12-09T12:48:54.135Z,38.10
2022-12-09T12:49:54.124Z,37.40
2022-12-09T12:50:54.077Z,38.50
2022-12-09T12:51:54.649Z,38.20
2022-12-09T12:52:56.712Z,37.70
2022-12-09T12:53:53.994Z,38.90